Cold Springs, Nevada
Current Conditions -  °F | °C
As of 8:55 AM on Saturday 22 Nov 2014 (Local Time) from KRTS Reporting Station
Broken Clouds Broken Clouds  
Wind Chill: 13°   Ceiling: 4300
Heat Index: 13°   Visibility: 10mi
Dew Point:   Wind: 26mph
Humidity: 54%   Direction: 250°WSW
Pressure: 29.92"   Gusts: 35mph
Location:  39.7378°N, 119.889°W
Report Text: KRTS 221655Z AUTO 25023G30KT 10SM BKN043 BKN049 13/04 A2992 RMK AO2 P0001
Loading
Personal Weather Stations






























Interactive Weather Map New forecast layout! Learn more

10-Day Weather Forecast

Advertisements
Track Severe Weather on mobile